sensor_id;sensor_type;location;lat;lon;timestamp;temperature;humidity
4245;DHT22;2136;48.502;9.194;2023-03-21T00:00:23;11.00;67.90
4245;DHT22;2136;48.502;9.194;2023-03-21T00:02:50;11.00;67.80
4245;DHT22;2136;48.502;9.194;2023-03-21T00:05:17;11.00;68.10
4245;DHT22;2136;48.502;9.194;2023-03-21T00:07:45;11.00;68.60
4245;DHT22;2136;48.502;9.194;2023-03-21T00:10:12;11.00;68.90
4245;DHT22;2136;48.502;9.194;2023-03-21T00:12:39;11.00;69.40
4245;DHT22;2136;48.502;9.194;2023-03-21T00:15:10;11.00;69.80
4245;DHT22;2136;48.502;9.194;2023-03-21T00:17:38;11.00;70.30
4245;DHT22;2136;48.502;9.194;2023-03-21T00:20:06;11.00;70.10
4245;DHT22;2136;48.502;9.194;2023-03-21T00:22:40;11.00;70.40
4245;DHT22;2136;48.502;9.194;2023-03-21T00:25:07;11.00;70.70
4245;DHT22;2136;48.502;9.194;2023-03-21T00:27:35;11.00;71.00
4245;DHT22;2136;48.502;9.194;2023-03-21T00:30:03;11.00;71.20
4245;DHT22;2136;48.502;9.194;2023-03-21T00:32:32;11.00;71.40
4245;DHT22;2136;48.502;9.194;2023-03-21T00:34:58;11.00;71.60
4245;DHT22;2136;48.502;9.194;2023-03-21T00:37:25;11.10;71.60
4245;DHT22;2136;48.502;9.194;2023-03-21T00:39:52;11.10;71.30
4245;DHT22;2136;48.502;9.194;2023-03-21T00:42:19;11.00;71.10
4245;DHT22;2136;48.502;9.194;2023-03-21T00:44:46;11.20;71.30
4245;DHT22;2136;48.502;9.194;2023-03-21T00:47:13;11.10;71.30
4245;DHT22;2136;48.502;9.194;2023-03-21T00:49:41;11.10;71.10
4245;DHT22;2136;48.502;9.194;2023-03-21T00:52:09;11.00;71.00
4245;DHT22;2136;48.502;9.194;2023-03-21T00:54:36;11.10;71.40
4245;DHT22;2136;48.502;9.194;2023-03-21T00:57:03;11.10;71.50
4245;DHT22;2136;48.502;9.194;2023-03-21T00:59:30;11.10;71.30
4245;DHT22;2136;48.502;9.194;2023-03-21T01:01:57;11.10;71.00
4245;DHT22;2136;48.502;9.194;2023-03-21T01:04:25;11.10;70.80
4245;DHT22;2136;48.502;9.194;2023-03-21T01:06:54;11.10;70.30
4245;DHT22;2136;48.502;9.194;2023-03-21T01:09:23;11.10;70.10
4245;DHT22;2136;48.502;9.194;2023-03-21T01:11:50;11.10;70.80
4245;DHT22;2136;48.502;9.194;2023-03-21T01:14:19;11.10;69.90
4245;DHT22;2136;48.502;9.194;2023-03-21T01:16:46;11.10;70.20
4245;DHT22;2136;48.502;9.194;2023-03-21T01:19:16;11.10;70.60
4245;DHT22;2136;48.502;9.194;2023-03-21T01:21:43;11.10;70.70
4245;DHT22;2136;48.502;9.194;2023-03-21T01:24:11;11.10;70.30
4245;DHT22;2136;48.502;9.194;2023-03-21T01:26:38;11.10;70.30
4245;DHT22;2136;48.502;9.194;2023-03-21T01:29:05;11.10;70.40
4245;DHT22;2136;48.502;9.194;2023-03-21T01:31:32;11.00;70.40
4245;DHT22;2136;48.502;9.194;2023-03-21T01:33:59;11.00;70.50
4245;DHT22;2136;48.502;9.194;2023-03-21T01:36:26;11.00;70.40
4245;DHT22;2136;48.502;9.194;2023-03-21T01:38:53;11.00;70.40
4245;DHT22;2136;48.502;9.194;2023-03-21T01:41:25;11.00;70.40
4245;DHT22;2136;48.502;9.194;2023-03-21T01:43:52;11.00;70.90
4245;DHT22;2136;48.502;9.194;2023-03-21T01:46:32;11.00;71.10
4245;DHT22;2136;48.502;9.194;2023-03-21T01:49:02;11.00;71.30
4245;DHT22;2136;48.502;9.194;2023-03-21T01:51:35;11.00;70.90
4245;DHT22;2136;48.502;9.194;2023-03-21T01:54:03;11.00;70.90
4245;DHT22;2136;48.502;9.194;2023-03-21T01:56:34;10.90;70.70
4245;DHT22;2136;48.502;9.194;2023-03-21T01:59:05;10.90;70.90
4245;DHT22;2136;48.502;9.194;2023-03-21T02:01:33;10.90;71.20
4245;DHT22;2136;48.502;9.194;2023-03-21T02:04:03;10.90;71.40
4245;DHT22;2136;48.502;9.194;2023-03-21T02:06:37;10.80;71.50
4245;DHT22;2136;48.502;9.194;2023-03-21T02:09:09;10.80;71.80
4245;DHT22;2136;48.502;9.194;2023-03-21T02:11:39;10.80;72.20
4245;DHT22;2136;48.502;9.194;2023-03-21T02:14:06;10.80;72.20
4245;DHT22;2136;48.502;9.194;2023-03-21T02:16:45;10.80;72.40
4245;DHT22;2136;48.502;9.194;2023-03-21T02:19:50;10.80;72.20
4245;DHT22;2136;48.502;9.194;2023-03-21T02:25:51;10.80;71.80
4245;DHT22;2136;48.502;9.194;2023-03-21T02:28:25;10.80;72.00
4245;DHT22;2136;48.502;9.194;2023-03-21T02:31:06;10.70;72.00
4245;DHT22;2136;48.502;9.194;2023-03-21T02:33:57;10.70;72.20
4245;DHT22;2136;48.502;9.194;2023-03-21T02:36:49;10.70;72.30
4245;DHT22;2136;48.502;9.194;2023-03-21T02:39:22;10.70;72.40
4245;DHT22;2136;48.502;9.194;2023-03-21T02:41:55;10.70;72.50
4245;DHT22;2136;48.502;9.194;2023-03-21T02:44:30;10.70;72.70
4245;DHT22;2136;48.502;9.194;2023-03-21T02:47:02;10.70;72.80
4245;DHT22;2136;48.502;9.194;2023-03-21T02:49:35;10.70;72.90
4245;DHT22;2136;48.502;9.194;2023-03-21T02:52:07;10.70;72.80
4245;DHT22;2136;48.502;9.194;2023-03-21T02:54:36;10.70;72.70
4245;DHT22;2136;48.502;9.194;2023-03-21T02:57:03;10.70;72.80
4245;DHT22;2136;48.502;9.194;2023-03-21T02:59:31;10.70;72.90
4245;DHT22;2136;48.502;9.194;2023-03-21T03:01:59;10.70;72.90
4245;DHT22;2136;48.502;9.194;2023-03-21T03:04:27;10.70;72.80
4245;DHT22;2136;48.502;9.194;2023-03-21T03:07:14;10.70;72.70
4245;DHT22;2136;48.502;9.194;2023-03-21T03:09:54;10.60;72.90
4245;DHT22;2136;48.502;9.194;2023-03-21T03:12:33;10.70;72.50
4245;DHT22;2136;48.502;9.194;2023-03-21T03:15:08;10.60;72.70
4245;DHT22;2136;48.502;9.194;2023-03-21T03:17:47;10.60;72.90
4245;DHT22;2136;48.502;9.194;2023-03-21T03:20:24;10.60;72.70
4245;DHT22;2136;48.502;9.194;2023-03-21T03:23:02;10.60;72.60
4245;DHT22;2136;48.502;9.194;2023-03-21T03:25:36;10.60;72.70
4245;DHT22;2136;48.502;9.194;2023-03-21T03:28:07;10.50;73.20
4245;DHT22;2136;48.502;9.194;2023-03-21T03:30:35;10.50;73.50
4245;DHT22;2136;48.502;9.194;2023-03-21T03:33:03;10.50;74.00
4245;DHT22;2136;48.502;9.194;2023-03-21T03:35:31;10.50;74.30
4245;DHT22;2136;48.502;9.194;2023-03-21T03:38:02;10.50;74.20
4245;DHT22;2136;48.502;9.194;2023-03-21T03:40:35;10.50;74.50
4245;DHT22;2136;48.502;9.194;2023-03-21T03:43:09;10.50;74.70
4245;DHT22;2136;48.502;9.194;2023-03-21T03:45:41;10.50;74.90
4245;DHT22;2136;48.502;9.194;2023-03-21T03:48:14;10.50;74.50
4245;DHT22;2136;48.502;9.194;2023-03-21T03:50:48;10.50;74.70
4245;DHT22;2136;48.502;9.194;2023-03-21T03:53:20;10.50;74.90
4245;DHT22;2136;48.502;9.194;2023-03-21T03:55:49;10.50;75.50
4245;DHT22;2136;48.502;9.194;2023-03-21T03:58:17;10.50;76.00
4245;DHT22;2136;48.502;9.194;2023-03-21T04:00:45;10.50;76.10
4245;DHT22;2136;48.502;9.194;2023-03-21T04:03:12;10.40;75.80
4245;DHT22;2136;48.502;9.194;2023-03-21T04:05:39;10.40;75.70
4245;DHT22;2136;48.502;9.194;2023-03-21T04:08:06;10.40;75.60
4245;DHT22;2136;48.502;9.194;2023-03-21T04:10:34;10.30;75.60
4245;DHT22;2136;48.502;9.194;2023-03-21T04:13:01;10.30;76.20
4245;DHT22;2136;48.502;9.194;2023-03-21T04:15:28;10.30;76.80
4245;DHT22;2136;48.502;9.194;2023-03-21T04:17:55;10.20;77.30
4245;DHT22;2136;48.502;9.194;2023-03-21T04:20:22;10.20;77.40
4245;DHT22;2136;48.502;9.194;2023-03-21T04:22:49;10.10;77.20
4245;DHT22;2136;48.502;9.194;2023-03-21T04:25:16;10.10;77.50
4245;DHT22;2136;48.502;9.194;2023-03-21T04:27:44;10.10;78.10
4245;DHT22;2136;48.502;9.194;2023-03-21T04:30:14;10.10;78.90
4245;DHT22;2136;48.502;9.194;2023-03-21T04:32:41;10.10;79.50
4245;DHT22;2136;48.502;9.194;2023-03-21T04:35:09;10.00;79.90
4245;DHT22;2136;48.502;9.194;2023-03-21T04:37:36;10.00;80.30
4245;DHT22;2136;48.502;9.194;2023-03-21T04:40:05;10.00;80.50
4245;DHT22;2136;48.502;9.194;2023-03-21T04:42:33;10.00;80.60
4245;DHT22;2136;48.502;9.194;2023-03-21T04:45:01;10.00;80.30
4245;DHT22;2136;48.502;9.194;2023-03-21T04:47:28;10.10;79.90
4245;DHT22;2136;48.502;9.194;2023-03-21T04:49:55;10.10;79.60
4245;DHT22;2136;48.502;9.194;2023-03-21T04:52:22;10.10;79.30
4245;DHT22;2136;48.502;9.194;2023-03-21T04:54:49;10.00;78.90
4245;DHT22;2136;48.502;9.194;2023-03-21T04:57:16;10.00;78.70
4245;DHT22;2136;48.502;9.194;2023-03-21T04:59:43;10.00;78.70
4245;DHT22;2136;48.502;9.194;2023-03-21T05:02:12;10.00;78.60
4245;DHT22;2136;48.502;9.194;2023-03-21T05:04:39;10.00;79.50
4245;DHT22;2136;48.502;9.194;2023-03-21T05:07:06;10.10;78.60
4245;DHT22;2136;48.502;9.194;2023-03-21T05:09:33;10.00;78.60
4245;DHT22;2136;48.502;9.194;2023-03-21T05:12:00;10.00;79.10
4245;DHT22;2136;48.502;9.194;2023-03-21T05:14:27;10.00;79.60
4245;DHT22;2136;48.502;9.194;2023-03-21T05:16:54;10.00;79.90
4245;DHT22;2136;48.502;9.194;2023-03-21T05:19:25;10.00;80.00
4245;DHT22;2136;48.502;9.194;2023-03-21T05:22:00;10.00;79.80
4245;DHT22;2136;48.502;9.194;2023-03-21T05:24:30;10.00;79.90
4245;DHT22;2136;48.502;9.194;2023-03-21T05:26:57;10.00;79.90
4245;DHT22;2136;48.502;9.194;2023-03-21T05:29:27;10.00;79.80
4245;DHT22;2136;48.502;9.194;2023-03-21T05:31:54;10.00;80.10
4245;DHT22;2136;48.502;9.194;2023-03-21T05:34:22;9.90;81.10
4245;DHT22;2136;48.502;9.194;2023-03-21T05:36:50;9.90;81.30
4245;DHT22;2136;48.502;9.194;2023-03-21T05:39:16;9.90;81.50
4245;DHT22;2136;48.502;9.194;2023-03-21T05:41:43;9.90;81.70
4245;DHT22;2136;48.502;9.194;2023-03-21T05:44:10;9.90;81.80
4245;DHT22;2136;48.502;9.194;2023-03-21T05:46:37;9.90;82.00
4245;DHT22;2136;48.502;9.194;2023-03-21T05:49:04;9.90;82.10
4245;DHT22;2136;48.502;9.194;2023-03-21T05:51:32;9.80;81.90
4245;DHT22;2136;48.502;9.194;2023-03-21T05:53:59;9.90;81.80
4245;DHT22;2136;48.502;9.194;2023-03-21T05:56:25;9.90;81.70
4245;DHT22;2136;48.502;9.194;2023-03-21T05:58:52;9.80;81.50
4245;DHT22;2136;48.502;9.194;2023-03-21T06:01:19;9.80;81.30
4245;DHT22;2136;48.502;9.194;2023-03-21T06:03:46;9.80;81.10
4245;DHT22;2136;48.502;9.194;2023-03-21T06:06:13;9.80;81.00
4245;DHT22;2136;48.502;9.194;2023-03-21T06:08:41;9.90;81.20
4245;DHT22;2136;48.502;9.194;2023-03-21T06:11:14;9.70;80.90
4245;DHT22;2136;48.502;9.194;2023-03-21T06:13:45;9.60;81.20
4245;DHT22;2136;48.502;9.194;2023-03-21T06:16:11;9.70;81.10
4245;DHT22;2136;48.502;9.194;2023-03-21T06:18:38;9.50;81.80
4245;DHT22;2136;48.502;9.194;2023-03-21T06:21:05;9.50;82.50
4245;DHT22;2136;48.502;9.194;2023-03-21T06:23:32;9.50;83.00
4245;DHT22;2136;48.502;9.194;2023-03-21T06:26:02;9.50;83.60
4245;DHT22;2136;48.502;9.194;2023-03-21T06:28:29;9.50;83.90
4245;DHT22;2136;48.502;9.194;2023-03-21T06:30:56;9.50;84.20
4245;DHT22;2136;48.502;9.194;2023-03-21T06:33:23;9.50;84.50
4245;DHT22;2136;48.502;9.194;2023-03-21T06:35:51;9.60;85.00
4245;DHT22;2136;48.502;9.194;2023-03-21T06:38:18;9.50;85.00
4245;DHT22;2136;48.502;9.194;2023-03-21T06:40:45;9.60;85.10
4245;DHT22;2136;48.502;9.194;2023-03-21T06:43:14;9.60;84.90
4245;DHT22;2136;48.502;9.194;2023-03-21T06:45:42;9.60;85.00
4245;DHT22;2136;48.502;9.194;2023-03-21T06:48:08;9.70;85.50
4245;DHT22;2136;48.502;9.194;2023-03-21T06:50:35;9.80;84.30
4245;DHT22;2136;48.502;9.194;2023-03-21T06:53:02;9.90;83.00
4245;DHT22;2136;48.502;9.194;2023-03-21T06:55:29;9.90;81.70
4245;DHT22;2136;48.502;9.194;2023-03-21T06:57:56;10.10;80.10
4245;DHT22;2136;48.502;9.194;2023-03-21T07:00:24;10.10;79.50
4245;DHT22;2136;48.502;9.194;2023-03-21T07:02:51;10.10;79.10
4245;DHT22;2136;48.502;9.194;2023-03-21T07:05:18;10.20;79.30
4245;DHT22;2136;48.502;9.194;2023-03-21T07:07:45;10.30;79.00
4245;DHT22;2136;48.502;9.194;2023-03-21T07:10:13;10.40;78.20
4245;DHT22;2136;48.502;9.194;2023-03-21T07:12:40;10.50;77.30
4245;DHT22;2136;48.502;9.194;2023-03-21T07:15:08;10.50;77.10
4245;DHT22;2136;48.502;9.194;2023-03-21T07:17:36;10.60;76.10
4245;DHT22;2136;48.502;9.194;2023-03-21T07:20:04;10.70;75.10
4245;DHT22;2136;48.502;9.194;2023-03-21T07:22:33;10.80;74.30
4245;DHT22;2136;48.502;9.194;2023-03-21T07:25:00;10.90;74.20
4245;DHT22;2136;48.502;9.194;2023-03-21T07:27:27;10.90;73.60
4245;DHT22;2136;48.502;9.194;2023-03-21T07:29:54;11.00;73.50
4245;DHT22;2136;48.502;9.194;2023-03-21T07:32:21;11.00;73.80
4245;DHT22;2136;48.502;9.194;2023-03-21T07:34:49;11.10;73.00
4245;DHT22;2136;48.502;9.194;2023-03-21T07:37:16;11.20;72.50
4245;DHT22;2136;48.502;9.194;2023-03-21T07:39:43;11.30;71.90
4245;DHT22;2136;48.502;9.194;2023-03-21T07:42:10;11.40;71.90
4245;DHT22;2136;48.502;9.194;2023-03-21T07:44:37;11.50;71.80
4245;DHT22;2136;48.502;9.194;2023-03-21T07:47:05;11.60;71.90
4245;DHT22;2136;48.502;9.194;2023-03-21T07:49:32;11.70;71.80
4245;DHT22;2136;48.502;9.194;2023-03-21T07:52:00;11.90;71.50
4245;DHT22;2136;48.502;9.194;2023-03-21T07:54:27;12.00;70.80
4245;DHT22;2136;48.502;9.194;2023-03-21T07:56:55;12.10;70.00
4245;DHT22;2136;48.502;9.194;2023-03-21T07:59:22;12.20;68.20
4245;DHT22;2136;48.502;9.194;2023-03-21T08:01:49;12.40;67.70
4245;DHT22;2136;48.502;9.194;2023-03-21T08:04:16;12.50;67.00
4245;DHT22;2136;48.502;9.194;2023-03-21T08:06:43;12.60;66.90
4245;DHT22;2136;48.502;9.194;2023-03-21T08:09:11;12.70;66.30
4245;DHT22;2136;48.502;9.194;2023-03-21T08:11:38;12.90;66.40
4245;DHT22;2136;48.502;9.194;2023-03-21T08:14:05;13.10;66.30
4245;DHT22;2136;48.502;9.194;2023-03-21T08:16:32;13.40;66.10
4245;DHT22;2136;48.502;9.194;2023-03-21T08:18:59;13.60;65.10
4245;DHT22;2136;48.502;9.194;2023-03-21T08:21:26;14.10;64.30
4245;DHT22;2136;48.502;9.194;2023-03-21T08:23:53;14.70;63.10
4245;DHT22;2136;48.502;9.194;2023-03-21T08:26:21;15.60;61.90
4245;DHT22;2136;48.502;9.194;2023-03-21T08:28:50;16.40;59.50
4245;DHT22;2136;48.502;9.194;2023-03-21T08:31:17;17.20;57.00
4245;DHT22;2136;48.502;9.194;2023-03-21T08:33:45;17.80;56.20
4245;DHT22;2136;48.502;9.194;2023-03-21T08:36:15;18.30;54.90
4245;DHT22;2136;48.502;9.194;2023-03-21T08:38:42;18.60;53.70
4245;DHT22;2136;48.502;9.194;2023-03-21T08:41:10;18.70;52.40
4245;DHT22;2136;48.502;9.194;2023-03-21T08:43:38;18.80;51.70
4245;DHT22;2136;48.502;9.194;2023-03-21T08:46:06;18.90;51.20
4245;DHT22;2136;48.502;9.194;2023-03-21T08:48:32;19.10;50.70
4245;DHT22;2136;48.502;9.194;2023-03-21T08:51:03;20.00;50.40
4245;DHT22;2136;48.502;9.194;2023-03-21T08:53:31;21.50;49.10
4245;DHT22;2136;48.502;9.194;2023-03-21T08:55:58;23.50;46.40
4245;DHT22;2136;48.502;9.194;2023-03-21T08:58:25;25.30;43.20
4245;DHT22;2136;48.502;9.194;2023-03-21T09:00:53;27.30;40.30
4245;DHT22;2136;48.502;9.194;2023-03-21T09:03:19;29.20;37.60
4245;DHT22;2136;48.502;9.194;2023-03-21T09:05:46;31.00;35.10
4245;DHT22;2136;48.502;9.194;2023-03-21T09:08:14;32.80;33.10
4245;DHT22;2136;48.502;9.194;2023-03-21T09:10:41;34.50;31.50
4245;DHT22;2136;48.502;9.194;2023-03-21T09:13:08;36.10;30.30
4245;DHT22;2136;48.502;9.194;2023-03-21T09:15:35;37.80;29.30
4245;DHT22;2136;48.502;9.194;2023-03-21T09:18:03;39.40;28.30
4245;DHT22;2136;48.502;9.194;2023-03-21T09:20:39;40.80;26.70
4245;DHT22;2136;48.502;9.194;2023-03-21T09:23:07;41.90;25.40
4245;DHT22;2136;48.502;9.194;2023-03-21T09:25:35;42.90;24.40
4245;DHT22;2136;48.502;9.194;2023-03-21T09:28:03;42.80;23.30
4245;DHT22;2136;48.502;9.194;2023-03-21T09:30:31;41.50;22.40
4245;DHT22;2136;48.502;9.194;2023-03-21T09:32:59;40.20;22.80
4245;DHT22;2136;48.502;9.194;2023-03-21T09:35:27;40.20;23.80
4245;DHT22;2136;48.502;9.194;2023-03-21T09:37:54;40.80;23.50
4245;DHT22;2136;48.502;9.194;2023-03-21T09:40:28;41.30;22.90
4245;DHT22;2136;48.502;9.194;2023-03-21T09:43:02;41.70;22.80
4245;DHT22;2136;48.502;9.194;2023-03-21T09:45:36;42.00;22.10
4245;DHT22;2136;48.502;9.194;2023-03-21T09:48:14;42.30;21.90
4245;DHT22;2136;48.502;9.194;2023-03-21T09:50:45;42.60;21.80
4245;DHT22;2136;48.502;9.194;2023-03-21T09:53:17;43.00;21.80
4245;DHT22;2136;48.502;9.194;2023-03-21T09:55:46;43.30;21.20
4245;DHT22;2136;48.502;9.194;2023-03-21T09:58:21;43.20;20.80
4245;DHT22;2136;48.502;9.194;2023-03-21T10:00:53;43.20;21.00
4245;DHT22;2136;48.502;9.194;2023-03-21T10:03:26;43.50;20.80
4245;DHT22;2136;48.502;9.194;2023-03-21T10:05:58;43.80;20.80
4245;DHT22;2136;48.502;9.194;2023-03-21T10:08:31;43.70;20.20
4245;DHT22;2136;48.502;9.194;2023-03-21T10:11:04;43.50;20.40
4245;DHT22;2136;48.502;9.194;2023-03-21T10:13:34;43.20;20.30
4245;DHT22;2136;48.502;9.194;2023-03-21T10:16:11;43.10;20.00
4245;DHT22;2136;48.502;9.194;2023-03-21T10:18:40;43.00;19.90
4245;DHT22;2136;48.502;9.194;2023-03-21T10:21:17;42.40;20.20
4245;DHT22;2136;48.502;9.194;2023-03-21T10:23:45;42.10;20.20
4245;DHT22;2136;48.502;9.194;2023-03-21T10:26:12;41.40;20.20
4245;DHT22;2136;48.502;9.194;2023-03-21T10:28:40;40.50;20.40
4245;DHT22;2136;48.502;9.194;2023-03-21T10:31:09;39.90;20.70
4245;DHT22;2136;48.502;9.194;2023-03-21T10:33:43;39.90;21.30
4245;DHT22;2136;48.502;9.194;2023-03-21T10:36:16;39.90;21.50
4245;DHT22;2136;48.502;9.194;2023-03-21T10:38:45;39.80;21.80
4245;DHT22;2136;48.502;9.194;2023-03-21T10:41:13;39.50;21.70
4245;DHT22;2136;48.502;9.194;2023-03-21T10:43:41;39.10;21.70
4245;DHT22;2136;48.502;9.194;2023-03-21T10:46:12;38.50;21.70
4245;DHT22;2136;48.502;9.194;2023-03-21T10:48:43;38.30;22.30
4245;DHT22;2136;48.502;9.194;2023-03-21T10:51:18;38.00;22.40
4245;DHT22;2136;48.502;9.194;2023-03-21T10:53:49;37.40;22.30
4245;DHT22;2136;48.502;9.194;2023-03-21T10:56:17;36.80;22.50
4245;DHT22;2136;48.502;9.194;2023-03-21T10:58:49;36.30;22.90
4245;DHT22;2136;48.502;9.194;2023-03-21T11:01:24;35.80;23.30
4245;DHT22;2136;48.502;9.194;2023-03-21T11:03:56;34.70;23.30
4245;DHT22;2136;48.502;9.194;2023-03-21T11:06:28;34.10;24.20
4245;DHT22;2136;48.502;9.194;2023-03-21T11:08:59;33.50;24.80
4245;DHT22;2136;48.502;9.194;2023-03-21T11:11:32;32.80;25.00
4245;DHT22;2136;48.502;9.194;2023-03-21T11:14:00;32.10;25.50
4245;DHT22;2136;48.502;9.194;2023-03-21T11:16:35;31.40;26.40
4245;DHT22;2136;48.502;9.194;2023-03-21T11:19:12;30.60;27.10
4245;DHT22;2136;48.502;9.194;2023-03-21T11:21:40;29.80;27.40
4245;DHT22;2136;48.502;9.194;2023-03-21T11:24:11;29.10;27.90
4245;DHT22;2136;48.502;9.194;2023-03-21T11:26:39;28.50;28.50
4245;DHT22;2136;48.502;9.194;2023-03-21T11:29:19;27.70;29.00
4245;DHT22;2136;48.502;9.194;2023-03-21T11:31:47;27.10;29.70
4245;DHT22;2136;48.502;9.194;2023-03-21T11:34:23;26.50;30.20
4245;DHT22;2136;48.502;9.194;2023-03-21T11:36:58;25.90;31.10
4245;DHT22;2136;48.502;9.194;2023-03-21T11:39:36;25.30;31.80
4245;DHT22;2136;48.502;9.194;2023-03-21T11:42:13;24.80;32.70
4245;DHT22;2136;48.502;9.194;2023-03-21T11:44:57;24.40;33.00
4245;DHT22;2136;48.502;9.194;2023-03-21T11:47:26;24.00;33.50
4245;DHT22;2136;48.502;9.194;2023-03-21T11:49:53;23.60;33.90
4245;DHT22;2136;48.502;9.194;2023-03-21T11:52:28;23.30;34.90
4245;DHT22;2136;48.502;9.194;2023-03-21T11:55:22;23.00;35.30
4245;DHT22;2136;48.502;9.194;2023-03-21T11:57:56;22.80;36.00
4245;DHT22;2136;48.502;9.194;2023-03-21T12:00:33;22.50;36.60
4245;DHT22;2136;48.502;9.194;2023-03-21T12:06:15;22.20;37.50
4245;DHT22;2136;48.502;9.194;2023-03-21T12:08:53;22.10;37.90
4245;DHT22;2136;48.502;9.194;2023-03-21T12:11:31;22.00;38.10
4245;DHT22;2136;48.502;9.194;2023-03-21T12:14:07;21.80;38.60
4245;DHT22;2136;48.502;9.194;2023-03-21T12:16:52;21.70;38.50
4245;DHT22;2136;48.502;9.194;2023-03-21T12:19:45;21.60;38.80
4245;DHT22;2136;48.502;9.194;2023-03-21T12:22:24;21.50;39.50
4245;DHT22;2136;48.502;9.194;2023-03-21T12:24:56;21.40;39.60
4245;DHT22;2136;48.502;9.194;2023-03-21T12:27:31;21.30;39.70
4245;DHT22;2136;48.502;9.194;2023-03-21T12:30:28;21.30;40.10
4245;DHT22;2136;48.502;9.194;2023-03-21T12:33:20;21.30;39.90
4245;DHT22;2136;48.502;9.194;2023-03-21T12:36:01;21.20;39.80
4245;DHT22;2136;48.502;9.194;2023-03-21T12:38:38;21.00;40.20
4245;DHT22;2136;48.502;9.194;2023-03-21T12:41:18;21.00;40.50
4245;DHT22;2136;48.502;9.194;2023-03-21T12:43:49;20.90;40.80
4245;DHT22;2136;48.502;9.194;2023-03-21T12:46:22;20.90;41.10
4245;DHT22;2136;48.502;9.194;2023-03-21T12:48:52;20.90;40.90
4245;DHT22;2136;48.502;9.194;2023-03-21T12:51:25;20.90;41.10
4245;DHT22;2136;48.502;9.194;2023-03-21T12:54:02;20.70;40.90
4245;DHT22;2136;48.502;9.194;2023-03-21T12:56:36;20.70;40.80
4245;DHT22;2136;48.502;9.194;2023-03-21T12:59:15;20.60;40.80
4245;DHT22;2136;48.502;9.194;2023-03-21T13:01:46;20.60;41.30
4245;DHT22;2136;48.502;9.194;2023-03-21T13:04:43;20.60;41.30
4245;DHT22;2136;48.502;9.194;2023-03-21T13:07:16;20.70;41.70
4245;DHT22;2136;48.502;9.194;2023-03-21T13:09:45;20.80;41.40
4245;DHT22;2136;48.502;9.194;2023-03-21T13:12:24;21.00;41.40
4245;DHT22;2136;48.502;9.194;2023-03-21T13:15:01;21.20;41.00
4245;DHT22;2136;48.502;9.194;2023-03-21T13:17:35;21.40;41.10
4245;DHT22;2136;48.502;9.194;2023-03-21T13:20:15;21.60;40.70
4245;DHT22;2136;48.502;9.194;2023-03-21T13:22:45;21.70;39.70
4245;DHT22;2136;48.502;9.194;2023-03-21T13:25:18;21.60;39.60
4245;DHT22;2136;48.502;9.194;2023-03-21T13:27:52;21.70;39.70
4245;DHT22;2136;48.502;9.194;2023-03-21T13:30:21;21.90;39.50
4245;DHT22;2136;48.502;9.194;2023-03-21T13:32:54;22.20;39.60
4245;DHT22;2136;48.502;9.194;2023-03-21T13:35:23;22.30;39.30
4245;DHT22;2136;48.502;9.194;2023-03-21T13:37:55;22.50;39.40
4245;DHT22;2136;48.502;9.194;2023-03-21T13:40:25;22.60;39.20
4245;DHT22;2136;48.502;9.194;2023-03-21T13:42:55;22.80;39.20
4245;DHT22;2136;48.502;9.194;2023-03-21T13:45:27;22.90;39.20
4245;DHT22;2136;48.502;9.194;2023-03-21T13:47:57;23.00;39.10
4245;DHT22;2136;48.502;9.194;2023-03-21T13:50:49;23.20;38.90
4245;DHT22;2136;48.502;9.194;2023-03-21T13:53:31;23.30;38.90
4245;DHT22;2136;48.502;9.194;2023-03-21T13:56:06;23.30;38.80
4245;DHT22;2136;48.502;9.194;2023-03-21T13:58:37;23.20;38.50
4245;DHT22;2136;48.502;9.194;2023-03-21T14:01:25;23.00;38.30
4245;DHT22;2136;48.502;9.194;2023-03-21T14:03:58;22.90;38.20
4245;DHT22;2136;48.502;9.194;2023-03-21T14:06:32;22.60;38.40
4245;DHT22;2136;48.502;9.194;2023-03-21T14:09:00;22.40;37.80
4245;DHT22;2136;48.502;9.194;2023-03-21T14:11:28;22.20;38.50
4245;DHT22;2136;48.502;9.194;2023-03-21T14:13:58;22.00;38.20
4245;DHT22;2136;48.502;9.194;2023-03-21T14:16:26;21.90;38.40
4245;DHT22;2136;48.502;9.194;2023-03-21T14:18:56;21.70;38.10
4245;DHT22;2136;48.502;9.194;2023-03-21T14:21:26;21.60;37.40
4245;DHT22;2136;48.502;9.194;2023-03-21T14:23:58;21.40;37.50
4245;DHT22;2136;48.502;9.194;2023-03-21T14:26:28;21.20;37.90
4245;DHT22;2136;48.502;9.194;2023-03-21T14:28:55;21.00;38.10
4245;DHT22;2136;48.502;9.194;2023-03-21T14:31:23;20.80;37.90
4245;DHT22;2136;48.502;9.194;2023-03-21T14:33:51;20.70;38.10
4245;DHT22;2136;48.502;9.194;2023-03-21T14:36:23;20.60;37.90
4245;DHT22;2136;48.502;9.194;2023-03-21T14:38:57;20.50;38.30
4245;DHT22;2136;48.502;9.194;2023-03-21T14:41:26;20.50;38.70
4245;DHT22;2136;48.502;9.194;2023-03-21T14:44:10;20.40;38.80
4245;DHT22;2136;48.502;9.194;2023-03-21T14:46:39;20.50;38.80
4245;DHT22;2136;48.502;9.194;2023-03-21T14:49:16;20.40;38.70
4245;DHT22;2136;48.502;9.194;2023-03-21T14:51:44;20.40;38.70
4245;DHT22;2136;48.502;9.194;2023-03-21T14:54:14;20.40;38.70
4245;DHT22;2136;48.502;9.194;2023-03-21T14:56:45;20.40;37.60
4245;DHT22;2136;48.502;9.194;2023-03-21T14:59:15;20.30;37.60
4245;DHT22;2136;48.502;9.194;2023-03-21T15:01:45;20.20;37.30
4245;DHT22;2136;48.502;9.194;2023-03-21T15:04:14;20.20;37.00
4245;DHT22;2136;48.502;9.194;2023-03-21T15:06:54;20.10;36.30
4245;DHT22;2136;48.502;9.194;2023-03-21T15:09:23;20.00;36.30
4245;DHT22;2136;48.502;9.194;2023-03-21T15:11:52;20.00;36.20
4245;DHT22;2136;48.502;9.194;2023-03-21T15:14:24;19.90;36.20
4245;DHT22;2136;48.502;9.194;2023-03-21T15:16:53;19.90;36.00
4245;DHT22;2136;48.502;9.194;2023-03-21T15:19:25;19.80;36.00
4245;DHT22;2136;48.502;9.194;2023-03-21T15:21:56;19.70;36.40
4245;DHT22;2136;48.502;9.194;2023-03-21T15:24:26;19.70;37.40
4245;DHT22;2136;48.502;9.194;2023-03-21T15:26:59;19.70;37.50
4245;DHT22;2136;48.502;9.194;2023-03-21T15:29:26;19.60;37.50
4245;DHT22;2136;48.502;9.194;2023-03-21T15:31:54;19.60;37.00
4245;DHT22;2136;48.502;9.194;2023-03-21T15:34:23;19.50;36.30
4245;DHT22;2136;48.502;9.194;2023-03-21T15:36:55;19.40;36.70
4245;DHT22;2136;48.502;9.194;2023-03-21T15:39:23;19.30;37.00
4245;DHT22;2136;48.502;9.194;2023-03-21T15:41:59;19.20;37.10
4245;DHT22;2136;48.502;9.194;2023-03-21T15:44:26;19.10;37.60
4245;DHT22;2136;48.502;9.194;2023-03-21T15:46:55;19.00;37.60
4245;DHT22;2136;48.502;9.194;2023-03-21T15:49:28;18.90;38.20
4245;DHT22;2136;48.502;9.194;2023-03-21T15:52:00;18.80;38.80
4245;DHT22;2136;48.502;9.194;2023-03-21T15:54:30;18.80;39.10
4245;DHT22;2136;48.502;9.194;2023-03-21T15:56:59;18.70;39.00
4245;DHT22;2136;48.502;9.194;2023-03-21T15:59:32;18.60;39.20
4245;DHT22;2136;48.502;9.194;2023-03-21T16:02:02;18.50;39.20
4245;DHT22;2136;48.502;9.194;2023-03-21T16:04:30;18.50;39.50
4245;DHT22;2136;48.502;9.194;2023-03-21T16:06:59;18.40;39.40
4245;DHT22;2136;48.502;9.194;2023-03-21T16:09:27;18.30;39.60
4245;DHT22;2136;48.502;9.194;2023-03-21T16:12:08;18.20;39.70
4245;DHT22;2136;48.502;9.194;2023-03-21T16:14:35;18.20;40.10
4245;DHT22;2136;48.502;9.194;2023-03-21T16:17:16;18.10;39.80
4245;DHT22;2136;48.502;9.194;2023-03-21T16:19:48;18.10;40.30
4245;DHT22;2136;48.502;9.194;2023-03-21T16:22:15;18.00;40.50
4245;DHT22;2136;48.502;9.194;2023-03-21T16:24:42;18.00;40.70
4245;DHT22;2136;48.502;9.194;2023-03-21T16:27:09;18.00;40.60
4245;DHT22;2136;48.502;9.194;2023-03-21T16:29:37;18.00;40.80